createdAt,value
2023-11-14T00:01:32.064Z,96422.63
2023-11-14T00:04:00.118Z,96417.77
2023-11-14T00:06:28.179Z,96416.02
2023-11-14T00:08:56.040Z,96406.95
2023-11-14T00:11:52.291Z,96399.69
2023-11-14T00:14:20.319Z,96391.09
2023-11-14T00:16:48.745Z,96397.45
2023-11-14T00:19:16.860Z,96402.83
2023-11-14T00:21:44.997Z,96402.34
2023-11-14T00:24:12.922Z,96398.39
2023-11-14T00:26:40.925Z,96399.16
2023-11-14T00:29:08.875Z,96391.17
2023-11-14T00:31:36.908Z,96397.01
2023-11-14T00:34:05.356Z,96394.96
2023-11-14T00:36:33.470Z,96391.86
2023-11-14T00:39:01.642Z,96383.27
2023-11-14T00:41:30.227Z,96397.57
2023-11-14T00:43:58.196Z,96396.59
2023-11-14T00:46:26.263Z,96401.16
2023-11-14T00:48:54.294Z,96421.80
2023-11-14T00:51:22.660Z,96427.81
2023-11-14T00:53:52.744Z,96457.80
2023-11-14T00:56:20.715Z,96467.98
2023-11-14T00:58:49.036Z,96477.86
2023-11-14T01:01:17.041Z,96513.60
2023-11-14T01:03:45.091Z,96569.77
2023-11-14T01:06:13.599Z,96571.73
2023-11-14T01:08:41.565Z,96563.58
2023-11-14T01:11:10.068Z,96553.36
2023-11-14T01:13:40.869Z,96536.27
2023-11-14T01:16:13.895Z,96525.31
2023-11-14T01:18:42.377Z,96518.41
2023-11-14T01:21:40.182Z,96508.70
2023-11-14T01:24:08.549Z,96500.45
2023-11-14T01:26:36.939Z,96480.35
2023-11-14T01:29:06.846Z,96466.30
2023-11-14T01:31:35.648Z,96457.35
2023-11-14T01:34:04.677Z,96463.80
2023-11-14T01:36:33.216Z,96463.95
2023-11-14T01:39:01.237Z,96463.55
2023-11-14T01:41:29.411Z,96453.20
2023-11-14T01:43:57.425Z,96446.69
2023-11-14T01:46:25.673Z,96449.60
2023-11-14T01:48:53.876Z,96440.60
2023-11-14T01:51:24.656Z,96427.31
2023-11-14T01:54:24.240Z,96437.48
2023-11-14T01:56:52.331Z,96440.45
2023-11-14T01:59:20.378Z,96439.67
2023-11-14T02:01:48.526Z,96433.92
2023-11-14T02:04:22.243Z,96444.34
2023-11-14T02:06:50.137Z,96442.42
2023-11-14T02:09:20.193Z,96442.74
2023-11-14T02:11:51.786Z,96454.05
2023-11-14T02:14:19.755Z,96459.55
2023-11-14T02:16:50.493Z,96461.41
2023-11-14T02:19:19.167Z,96470.13
2023-11-14T02:21:48.095Z,96475.55
2023-11-14T02:24:17.846Z,96484.42
2023-11-14T02:26:48.391Z,96482.73
2023-11-14T02:29:26.247Z,96483.30
2023-11-14T02:31:54.375Z,96459.20
2023-11-14T02:34:22.559Z,96461.84
2023-11-14T02:36:50.437Z,96439.08
2023-11-14T02:39:18.413Z,96457.23
2023-11-14T02:41:46.337Z,96455.23
2023-11-14T02:44:14.453Z,96459.65
2023-11-14T02:46:42.705Z,96457.92
2023-11-14T02:49:48.850Z,96455.11
2023-11-14T02:52:16.813Z,96448.11
2023-11-14T02:54:44.708Z,96450.30
2023-11-14T02:57:13.668Z,96460.75
2023-11-14T02:59:41.687Z,96461.81
2023-11-14T03:02:09.731Z,96461.37
2023-11-14T03:04:37.865Z,96465.79
2023-11-14T03:07:05.966Z,96471.75
2023-11-14T03:09:33.945Z,96466.42
2023-11-14T03:12:02.579Z,96463.31
2023-11-14T03:14:30.665Z,96453.52
2023-11-14T03:16:58.714Z,96455.61
2023-11-14T03:19:27.051Z,96464.23
2023-11-14T03:21:54.968Z,96475.41
2023-11-14T03:24:23.070Z,96490.05
2023-11-14T03:26:50.998Z,96486.31
2023-11-14T03:29:19.026Z,96489.48
2023-11-14T03:31:47.163Z,96494.47
2023-11-14T03:34:15.471Z,96505.36
2023-11-14T03:36:43.600Z,96512.51
2023-11-14T03:39:13.289Z,96513.13
2023-11-14T03:41:41.347Z,96513.36
2023-11-14T03:44:09.569Z,96514.73
2023-11-14T03:46:37.597Z,96520.09
2023-11-14T03:49:06.633Z,96524.17
2023-11-14T03:51:34.651Z,96530.37
2023-11-14T03:54:03.874Z,96529.23
2023-11-14T03:56:32.965Z,96532.84
2023-11-14T03:59:00.967Z,96522.14
2023-11-14T04:01:29.564Z,96531.72
2023-11-14T04:03:57.825Z,96531.96
2023-11-14T04:06:25.768Z,96545.32
2023-11-14T04:08:53.713Z,96541.34
2023-11-14T04:11:22.280Z,96541.30
2023-11-14T04:13:50.410Z,96539.18
2023-11-14T04:16:20.777Z,96537.45
2023-11-14T04:18:49.002Z,96541.62
2023-11-14T04:21:21.019Z,96548.02
2023-11-14T04:23:49.555Z,96551.47
2023-11-14T04:26:17.742Z,96552.92
2023-11-14T04:28:45.815Z,96557.43
2023-11-14T04:31:14.026Z,96558.94
2023-11-14T04:33:42.126Z,96559.70
2023-11-14T04:36:11.098Z,96551.89
2023-11-14T04:38:39.142Z,96561.79
2023-11-14T04:41:07.135Z,96562.16
2023-11-14T04:43:35.102Z,96566.91
2023-11-14T04:46:06.262Z,96567.66
2023-11-14T04:48:34.248Z,96567.86
2023-11-14T04:51:02.774Z,96566.19
2023-11-14T04:53:30.653Z,96571.20
2023-11-14T04:55:58.545Z,96577.21
2023-11-14T04:58:26.567Z,96582.19
2023-11-14T05:00:54.542Z,96583.89
2023-11-14T05:03:22.562Z,96582.64
2023-11-14T05:05:50.487Z,96588.50
2023-11-14T05:08:18.393Z,96591.23
2023-11-14T05:10:46.656Z,96595.30
2023-11-14T05:13:14.596Z,96604.64
2023-11-14T05:15:43.041Z,96614.20
2023-11-14T05:18:11.093Z,96625.84
2023-11-14T05:20:39.097Z,96631.92
2023-11-14T05:23:08.019Z,96627.30
2023-11-14T05:25:36.810Z,96629.86
2023-11-14T05:28:04.919Z,96632.73
2023-11-14T05:30:32.961Z,96641.32
2023-11-14T05:33:01.073Z,96653.42
2023-11-14T05:35:29.647Z,96649.84
2023-11-14T05:37:57.563Z,96664.30
2023-11-14T05:40:26.050Z,96664.41
2023-11-14T05:42:54.623Z,96665.94
2023-11-14T05:45:24.995Z,96674.92
2023-11-14T05:47:54.113Z,96674.80
2023-11-14T05:50:22.023Z,96677.45
2023-11-14T05:52:49.998Z,96690.89
2023-11-14T05:55:18.130Z,96695.41
2023-11-14T05:57:46.128Z,96690.66
2023-11-14T06:00:16.724Z,96685.52
2023-11-14T06:02:48.462Z,96691.62
2023-11-14T06:05:17.104Z,96701.68
2023-11-14T06:07:45.296Z,96695.44
2023-11-14T06:10:13.340Z,96683.67
2023-11-14T06:12:41.396Z,96699.55
2023-11-14T06:15:10.889Z,96702.84
2023-11-14T06:17:39.067Z,96715.68
2023-11-14T06:20:09.861Z,96719.58
2023-11-14T06:22:38.069Z,96717.84
2023-11-14T06:25:06.806Z,96722.41
2023-11-14T06:27:35.330Z,96725.48
2023-11-14T06:30:03.486Z,96718.14
2023-11-14T06:32:31.475Z,96721.67
2023-11-14T06:34:59.451Z,96734.15
2023-11-14T06:37:27.410Z,96743.96
2023-11-14T06:39:56.928Z,96748.75
2023-11-14T06:42:25.378Z,96754.44
2023-11-14T06:44:53.248Z,96759.75
2023-11-14T06:47:21.179Z,96761.89
2023-11-14T06:49:49.244Z,96770.94
2023-11-14T06:52:17.355Z,96770.12
2023-11-14T06:54:45.404Z,96774.45
2023-11-14T06:57:13.473Z,96768.67
2023-11-14T06:59:41.572Z,96776.09
2023-11-14T07:02:10.508Z,96782.26
2023-11-14T07:04:38.578Z,96791.05
2023-11-14T07:07:07.335Z,96791.23
2023-11-14T07:09:35.436Z,96789.78
2023-11-14T07:12:03.502Z,96804.34
2023-11-14T07:14:31.480Z,96803.49
2023-11-14T07:16:59.691Z,96798.89
2023-11-14T07:19:28.101Z,96792.23
2023-11-14T07:21:58.836Z,96793.84
2023-11-14T07:24:26.759Z,96802.50
2023-11-14T07:26:54.721Z,96801.98
2023-11-14T07:29:22.839Z,96806.07
2023-11-14T07:31:51.720Z,96799.36
2023-11-14T07:34:20.999Z,96800.09
2023-11-14T07:36:50.125Z,96798.00
2023-11-14T07:39:18.726Z,96791.55
2023-11-14T07:41:47.729Z,96788.39
2023-11-14T07:44:15.675Z,96791.17
2023-11-14T07:46:45.977Z,96794.58
2023-11-14T07:49:14.124Z,96799.81
2023-11-14T07:51:42.231Z,96802.67
2023-11-14T07:54:11.470Z,96810.18
2023-11-14T07:56:43.135Z,96810.45
2023-11-14T07:59:11.144Z,96811.38
2023-11-14T08:01:40.029Z,96812.71
2023-11-14T08:04:10.602Z,96812.30
2023-11-14T08:06:39.559Z,96808.77
2023-11-14T08:09:07.576Z,96808.82
2023-11-14T08:11:39.694Z,96811.03
2023-11-14T08:14:07.690Z,96807.96
2023-11-14T08:16:35.758Z,96807.58
2023-11-14T08:19:03.854Z,96813.80
2023-11-14T08:21:31.866Z,96810.63
2023-11-14T08:23:59.876Z,96810.83
2023-11-14T08:26:28.098Z,96813.35
2023-11-14T08:28:56.131Z,96822.09
2023-11-14T08:31:24.520Z,96822.27
2023-11-14T08:33:52.591Z,96822.19
2023-11-14T08:36:21.193Z,96815.50
2023-11-14T08:38:49.113Z,96806.23
2023-11-14T08:41:17.993Z,96799.58
2023-11-14T08:43:47.253Z,96799.84
2023-11-14T08:46:16.401Z,96809.19
2023-11-14T08:48:44.978Z,96808.82
2023-11-14T08:51:17.330Z,96811.81
2023-11-14T08:53:45.372Z,96813.41
2023-11-14T08:56:14.043Z,96809.39
2023-11-14T08:58:42.081Z,96800.67
2023-11-14T09:01:13.039Z,96804.67
2023-11-14T09:03:42.121Z,96804.34
2023-11-14T09:06:10.165Z,96803.44
2023-11-14T09:08:39.027Z,96797.44
2023-11-14T09:11:07.149Z,96802.73
2023-11-14T09:13:35.865Z,96809.55
2023-11-14T09:16:06.584Z,96818.33
2023-11-14T09:18:37.198Z,96818.11
2023-11-14T09:21:05.735Z,96817.81
2023-11-14T09:23:34.590Z,96822.19
2023-11-14T09:26:05.939Z,96827.08
2023-11-14T09:28:38.264Z,96833.66
2023-11-14T09:31:07.318Z,96843.02
2023-11-14T09:33:39.238Z,96846.63
2023-11-14T09:36:07.972Z,96850.45
2023-11-14T09:38:36.540Z,96860.90
2023-11-14T09:41:04.722Z,96850.35
2023-11-14T09:43:35.092Z,96847.22
2023-11-14T09:46:03.766Z,96858.00
2023-11-14T09:48:32.633Z,96853.46
2023-11-14T09:51:02.242Z,96851.95
2023-11-14T09:53:33.814Z,96853.05
2023-11-14T09:56:04.707Z,96853.73
2023-11-14T09:58:33.116Z,96847.14
2023-11-14T10:01:03.606Z,96847.98
2023-11-14T10:03:33.200Z,96849.20
2023-11-14T10:06:01.353Z,96847.42
2023-11-14T10:08:31.626Z,96848.16
2023-11-14T10:11:10.943Z,96851.77
2023-11-14T10:13:41.195Z,96846.34
2023-11-14T10:16:17.906Z,96843.90
2023-11-14T10:18:50.871Z,96849.35
2023-11-14T10:21:35.066Z,96841.92
2023-11-14T10:24:12.876Z,96843.17
2023-11-14T10:26:53.594Z,96831.07
2023-11-14T10:29:23.204Z,96831.06
2023-11-14T10:31:53.116Z,96827.42
2023-11-14T10:34:28.633Z,96817.05
2023-11-14T10:36:59.085Z,96837.48
2023-11-14T10:39:27.995Z,96832.30
2023-11-14T10:41:56.518Z,96814.51
2023-11-14T10:44:26.197Z,96819.45
2023-11-14T10:47:02.918Z,96822.02
2023-11-14T10:49:32.194Z,96817.66
2023-11-14T10:52:02.228Z,96810.58
2023-11-14T10:54:31.800Z,96819.83
2023-11-14T10:57:03.646Z,96831.22
2023-11-14T10:59:37.477Z,96832.48
2023-11-14T11:02:05.464Z,96833.13
2023-11-14T11:04:35.325Z,96840.40
2023-11-14T11:07:03.820Z,96814.67
2023-11-14T11:09:33.091Z,96833.30
2023-11-14T11:12:03.077Z,96844.90
2023-11-14T11:14:32.943Z,96845.38
2023-11-14T11:17:01.605Z,96844.20
2023-11-14T11:19:30.242Z,96841.45
2023-11-14T11:22:07.636Z,96823.96
2023-11-14T11:24:42.814Z,96828.16
2023-11-14T11:27:20.436Z,96824.48
2023-11-14T11:29:51.507Z,96834.84
2023-11-14T11:32:24.047Z,96827.76
2023-11-14T11:35:21.102Z,96830.27
2023-11-14T11:37:55.806Z,96846.25
2023-11-14T11:40:27.020Z,96849.77
2023-11-14T11:43:00.382Z,96848.23
2023-11-14T11:45:29.130Z,96851.73
2023-11-14T11:47:59.111Z,96844.38
2023-11-14T11:50:36.776Z,96838.64
2023-11-14T11:53:07.138Z,96836.68
2023-11-14T11:55:37.133Z,96835.65
2023-11-14T11:58:09.446Z,96836.39
2023-11-14T12:00:37.689Z,96832.70
2023-11-14T12:03:06.994Z,96832.05
2023-11-14T12:05:35.489Z,96824.48
2023-11-14T12:08:06.439Z,96811.34
2023-11-14T12:10:35.022Z,96815.75
2023-11-14T12:13:05.764Z,96823.07
2023-11-14T12:15:36.703Z,96831.70
2023-11-14T12:18:04.827Z,96833.06
2023-11-14T12:20:33.738Z,96832.49
2023-11-14T12:23:02.447Z,96828.45
2023-11-14T12:25:30.517Z,96836.79
2023-11-14T12:28:01.721Z,96832.89
2023-11-14T12:30:30.606Z,96837.36
2023-11-14T12:33:06.979Z,96824.84
2023-11-14T12:36:01.946Z,96829.58
2023-11-14T12:38:35.772Z,96823.28
2023-11-14T12:41:17.129Z,96833.78
2023-11-14T12:43:58.659Z,96842.50
2023-11-14T12:46:35.435Z,96837.59
2023-11-14T12:49:19.708Z,96833.50
2023-11-14T12:52:18.443Z,96830.21
2023-11-14T12:54:46.434Z,96831.08
2023-11-14T12:57:14.402Z,96828.30
2023-11-14T12:59:44.548Z,96819.82
2023-11-14T13:02:12.635Z,96809.33
2023-11-14T13:04:40.662Z,96816.13
2023-11-14T13:07:08.734Z,96819.68
2023-11-14T13:09:36.676Z,96827.42
2023-11-14T13:12:05.666Z,96831.45
2023-11-14T13:14:34.021Z,96851.50
2023-11-14T13:17:02.754Z,96847.36
2023-11-14T13:19:31.499Z,96836.65
2023-11-14T13:21:59.381Z,96851.47
2023-11-14T13:24:27.398Z,96862.05
2023-11-14T13:26:55.763Z,96861.94
2023-11-14T13:29:23.692Z,96857.31
2023-11-14T13:31:51.677Z,96863.84
2023-11-14T13:34:20.106Z,96855.00
2023-11-14T13:36:48.353Z,96845.72
2023-11-14T13:39:17.547Z,96846.17
2023-11-14T13:41:47.191Z,96843.91
2023-11-14T13:44:16.661Z,96835.36
2023-11-14T13:46:46.982Z,96827.91
2023-11-14T13:49:17.530Z,96820.51
2023-11-14T13:51:45.393Z,96820.73
2023-11-14T13:54:18.128Z,96823.55
2023-11-14T13:56:46.958Z,96821.41
2023-11-14T13:59:16.447Z,96826.23
2023-11-14T14:01:44.743Z,96823.60
2023-11-14T14:04:12.781Z,96824.95
2023-11-14T14:06:40.861Z,96821.45
2023-11-14T14:09:08.808Z,96819.49
2023-11-14T14:11:37.745Z,96824.69
2023-11-14T14:14:07.754Z,96825.10
2023-11-14T14:16:35.836Z,96816.54
2023-11-14T14:19:04.403Z,96814.21
2023-11-14T14:21:32.455Z,96811.86
2023-11-14T14:24:00.494Z,96811.76
2023-11-14T14:26:28.619Z,96815.67
2023-11-14T14:28:57.076Z,96810.55
2023-11-14T14:31:25.220Z,96818.16
2023-11-14T14:33:53.332Z,96807.73
2023-11-14T14:36:21.326Z,96810.27
2023-11-14T14:38:49.372Z,96809.61
2023-11-14T14:41:17.393Z,96809.34
2023-11-14T14:43:48.705Z,96814.35
2023-11-14T14:46:16.855Z,96808.96
2023-11-14T14:48:45.369Z,96808.59
2023-11-14T14:51:13.699Z,96813.49
2023-11-14T14:53:41.737Z,96815.52
2023-11-14T14:56:09.768Z,96820.89
2023-11-14T14:58:37.922Z,96815.42
2023-11-14T15:01:06.063Z,96812.83
2023-11-14T15:03:34.175Z,96804.66
2023-11-14T15:06:02.333Z,96810.65
2023-11-14T15:08:30.703Z,96800.94
2023-11-14T15:10:58.863Z,96807.42
2023-11-14T15:13:26.993Z,96808.31
2023-11-14T15:15:55.432Z,96804.46
2023-11-14T15:18:23.378Z,96808.76
2023-11-14T15:20:51.484Z,96810.31
2023-11-14T15:23:19.899Z,96811.33
2023-11-14T15:25:48.896Z,96808.75
2023-11-14T15:28:17.025Z,96813.15
2023-11-14T15:30:46.800Z,96811.75
2023-11-14T15:33:15.323Z,96809.48
2023-11-14T15:35:43.688Z,96814.66
2023-11-14T15:38:12.968Z,96814.88
2023-11-14T15:40:40.950Z,96811.27
2023-11-14T15:43:08.957Z,96811.21
2023-11-14T15:45:37.089Z,96802.38
2023-11-14T15:48:05.691Z,96809.59
2023-11-14T15:50:34.008Z,96815.23
2023-11-14T15:53:01.974Z,96815.82
2023-11-14T15:55:30.861Z,96818.35
2023-11-14T15:57:58.751Z,96825.50
2023-11-14T16:00:27.062Z,96824.16
2023-11-14T16:02:55.100Z,96822.39
2023-11-14T16:05:23.312Z,96817.64
2023-11-14T16:07:52.585Z,96815.45
2023-11-14T16:10:20.526Z,96819.48
2023-11-14T16:12:48.831Z,96817.98
2023-11-14T16:15:16.755Z,96821.00
2023-11-14T16:17:45.477Z,96822.33
2023-11-14T16:20:13.892Z,96819.10
2023-11-14T16:22:41.991Z,96824.13
2023-11-14T16:25:11.532Z,96826.06
2023-11-14T16:27:39.465Z,96824.44
2023-11-14T16:30:08.156Z,96830.33
2023-11-14T16:32:36.160Z,96819.91
2023-11-14T16:35:04.749Z,96814.09
2023-11-14T16:37:34.042Z,96814.56
2023-11-14T16:40:02.112Z,96809.25
2023-11-14T16:42:30.331Z,96819.31
2023-11-14T16:44:58.379Z,96816.71
2023-11-14T16:47:26.370Z,96810.36
2023-11-14T16:49:54.318Z,96809.01
2023-11-14T16:52:22.361Z,96808.40
2023-11-14T16:54:50.427Z,96807.48
2023-11-14T16:57:18.430Z,96815.14
2023-11-14T16:59:46.839Z,96815.77
2023-11-14T17:02:15.307Z,96808.22
2023-11-14T17:04:43.493Z,96810.79
2023-11-14T17:07:11.503Z,96814.94
2023-11-14T17:09:40.782Z,96810.00
2023-11-14T17:12:09.290Z,96804.01
2023-11-14T17:14:37.313Z,96807.55
2023-11-14T17:17:05.392Z,96810.56
2023-11-14T17:19:33.400Z,96811.67
2023-11-14T17:22:01.586Z,96813.86
2023-11-14T17:24:29.681Z,96820.92
2023-11-14T17:26:58.859Z,96825.30
2023-11-14T17:29:26.900Z,96831.30
2023-11-14T17:31:57.205Z,96830.94
2023-11-14T17:34:26.199Z,96828.45
2023-11-14T17:36:54.205Z,96828.10
2023-11-14T17:39:22.243Z,96830.73
2023-11-14T17:41:51.141Z,96831.05
2023-11-14T17:44:22.756Z,96838.32
2023-11-14T17:46:52.371Z,96830.66
2023-11-14T17:49:20.414Z,96829.83
2023-11-14T17:51:49.844Z,96823.44
2023-11-14T17:54:18.036Z,96830.08
2023-11-14T17:56:45.980Z,96811.61
2023-11-14T17:59:14.185Z,96809.33
2023-11-14T18:01:42.438Z,96800.31
2023-11-14T18:04:10.566Z,96793.83
2023-11-14T18:06:44.949Z,96788.95
2023-11-14T18:09:13.621Z,96783.09
2023-11-14T18:11:41.640Z,96792.97
2023-11-14T18:14:09.860Z,96787.92
2023-11-14T18:16:37.948Z,96792.23
2023-11-14T18:19:05.958Z,96798.56
2023-11-14T18:21:35.162Z,96794.52
2023-11-14T18:24:03.221Z,96786.56
2023-11-14T18:26:32.437Z,96788.16
2023-11-14T18:29:00.629Z,96793.52
2023-11-14T18:31:28.645Z,96795.51
2023-11-14T18:33:56.623Z,96796.65
2023-11-14T18:36:24.638Z,96788.02
2023-11-14T18:38:53.837Z,96791.80
2023-11-14T18:41:21.882Z,96786.80
2023-11-14T18:43:49.928Z,96782.08
2023-11-14T18:46:18.679Z,96779.95
2023-11-14T18:48:46.613Z,96778.89
2023-11-14T18:51:14.837Z,96773.42
2023-11-14T18:53:44.649Z,96766.21
2023-11-14T18:56:12.839Z,96764.27
2023-11-14T18:58:40.801Z,96765.11
2023-11-14T19:01:08.893Z,96759.35
2023-11-14T19:03:37.214Z,96764.29
2023-11-14T19:06:06.320Z,96758.41
2023-11-14T19:08:34.307Z,96758.27
2023-11-14T19:11:03.137Z,96755.33
2023-11-14T19:13:34.351Z,96754.60
2023-11-14T19:16:02.472Z,96754.44
2023-11-14T19:18:30.659Z,96748.55
2023-11-14T19:21:37.760Z,96756.95
2023-11-14T19:23:49.398Z,96768.36
2023-11-14T19:26:17.417Z,96756.17
2023-11-14T19:28:45.739Z,96766.62
2023-11-14T19:31:13.912Z,96752.02
2023-11-14T19:33:41.840Z,96746.04
2023-11-14T19:36:13.308Z,96730.06
2023-11-14T19:38:41.863Z,96737.11
2023-11-14T19:41:14.167Z,96725.37
2023-11-14T19:43:47.365Z,96724.92
2023-11-14T19:46:18.225Z,96715.45
2023-11-14T19:48:46.822Z,96709.89
2023-11-14T19:51:17.223Z,96726.70
2023-11-14T19:53:45.269Z,96721.74
2023-11-14T19:56:13.555Z,96719.29
2023-11-14T19:58:41.515Z,96720.38
2023-11-14T20:01:09.530Z,96729.23
2023-11-14T20:03:38.117Z,96722.49
2023-11-14T20:06:07.872Z,96723.00
2023-11-14T20:08:36.182Z,96722.45
2023-11-14T20:11:04.157Z,96725.40
2023-11-14T20:13:33.552Z,96731.82
2023-11-14T20:16:01.651Z,96727.08
2023-11-14T20:18:30.217Z,96718.73
2023-11-14T20:20:58.196Z,96704.11
2023-11-14T20:23:26.408Z,96702.83
2023-11-14T20:25:54.426Z,96703.84
2023-11-14T20:28:24.963Z,96700.64
2023-11-14T20:30:53.227Z,96694.20
2023-11-14T20:33:22.942Z,96687.48
2023-11-14T20:35:51.838Z,96683.70
2023-11-14T20:38:20.074Z,96689.04
2023-11-14T20:40:48.050Z,96691.91
2023-11-14T20:43:15.988Z,96690.77
2023-11-14T20:45:44.057Z,96679.81
2023-11-14T20:48:12.282Z,96673.10
2023-11-14T20:50:40.253Z,96677.12
2023-11-14T20:53:08.223Z,96676.19
2023-11-14T20:55:36.218Z,96672.77
2023-11-14T20:58:04.125Z,96671.16
2023-11-14T21:00:32.069Z,96661.30
2023-11-14T21:03:00.321Z,96654.91
2023-11-14T21:05:29.105Z,96649.61
2023-11-14T21:07:57.127Z,96639.14
2023-11-14T21:10:25.609Z,96651.70
2023-11-14T21:12:53.683Z,96651.92
2023-11-14T21:15:21.644Z,96661.90
2023-11-14T21:17:53.229Z,96660.66
2023-11-14T21:20:22.513Z,96657.52
2023-11-14T21:22:51.668Z,96652.18
2023-11-14T21:25:20.779Z,96642.59
2023-11-14T21:27:49.076Z,96638.33
2023-11-14T21:30:18.003Z,96637.79
2023-11-14T21:32:49.755Z,96636.02
2023-11-14T21:35:18.104Z,96641.37
2023-11-14T21:37:46.230Z,96650.84
2023-11-14T21:40:14.237Z,96646.03
2023-11-14T21:42:43.165Z,96639.34
2023-11-14T21:45:11.987Z,96641.81
2023-11-14T21:47:41.167Z,96646.70
2023-11-14T21:50:09.551Z,96642.72
2023-11-14T21:52:37.496Z,96636.38
2023-11-14T21:55:05.812Z,96631.69
2023-11-14T21:57:33.783Z,96623.77
2023-11-14T22:00:01.779Z,96623.88
2023-11-14T22:02:36.407Z,96622.55
2023-11-14T22:05:04.697Z,96616.96
2023-11-14T22:07:33.141Z,96617.34
2023-11-14T22:10:04.451Z,96609.50
2023-11-14T22:12:33.380Z,96611.24
2023-11-14T22:15:01.410Z,96606.67
2023-11-14T22:17:29.613Z,96606.36
2023-11-14T22:19:57.627Z,96595.05
2023-11-14T22:22:26.575Z,96593.59
2023-11-14T22:24:54.603Z,96594.17
2023-11-14T22:27:22.664Z,96590.98
2023-11-14T22:29:56.923Z,96584.56
2023-11-14T22:32:27.080Z,96582.84
2023-11-14T22:34:55.137Z,96583.17
2023-11-14T22:37:23.150Z,96576.95
2023-11-14T22:39:51.112Z,96577.46
2023-11-14T22:42:19.167Z,96579.08
2023-11-14T22:44:47.859Z,96575.69
2023-11-14T22:47:15.961Z,96576.13
2023-11-14T22:49:44.542Z,96576.95
2023-11-14T22:52:12.513Z,96584.52
2023-11-14T22:54:42.299Z,96587.08
2023-11-14T22:57:10.311Z,96582.71
2023-11-14T22:59:39.250Z,96581.93
2023-11-14T23:02:07.272Z,96578.08
2023-11-14T23:04:35.416Z,96573.89
2023-11-14T23:07:03.343Z,96573.80
2023-11-14T23:09:33.820Z,96570.36
2023-11-14T23:12:04.857Z,96570.48
2023-11-14T23:14:33.486Z,96569.15
2023-11-14T23:17:01.682Z,96570.35
2023-11-14T23:19:29.651Z,96564.62
2023-11-14T23:21:59.849Z,96560.92
2023-11-14T23:24:28.166Z,96566.02
2023-11-14T23:26:57.444Z,96551.10
2023-11-14T23:29:27.052Z,96552.14
2023-11-14T23:31:57.233Z,96555.36
2023-11-14T23:34:25.304Z,96553.03
2023-11-14T23:36:53.342Z,96549.79
2023-11-14T23:39:21.366Z,96560.06
2023-11-14T23:41:51.803Z,96552.22
2023-11-14T23:44:19.979Z,96553.90
2023-11-14T23:46:48.396Z,96551.30
2023-11-14T23:49:17.378Z,96552.14
2023-11-14T23:51:45.439Z,96555.18
2023-11-14T23:54:13.409Z,96553.86
2023-11-14T23:56:41.982Z,96553.43
2023-11-14T23:59:10.060Z,96556.39
